Flight Track Log - Related Links

Times and Time Zones

All times are in EDT time to prevent confusion due to time zone crossing. See the N194A flight status page for this flight to view local times or setup timezone preferences in your user account.

Time Position Orientation Groundspeed Altitude Reporting Facility
EDT Latitude Longitude Course Direction KTS MPH feet Rate Location/Type
Sat 05:35:20 PM 42.4681 -96.4275 344° North 113 130 4,100  Level Minneapolis Center
Sat 05:36:22 PM 42.4919 -96.4361 345° North 89 102 4,800 683 Climbing Minneapolis Center
Sat 05:37:23 PM 42.5158 -96.4450 345° North 89 102 5,500 787 Climbing Minneapolis Center
Sat 05:38:24 PM 42.5397 -96.4539 345° North 89 102 6,400 537 Climbing Minneapolis Center
Sat 05:39:00 PM 42.5902 -96.4568 344° North  Level FlightAware Approximate
Sat 05:39:26 PM 42.5686 -96.4647 345° North 101 116 6,600  Level Minneapolis Center
Sat 05:40:00 PM 42.6215 -96.4689 344° North  Level FlightAware Approximate
Sat 05:40:27 PM 42.6064 -96.4778 346° North 129 148 6,400  Level Minneapolis Center
Sat 05:41:28 PM 42.6464 -96.4906 347° North 144 166 6,600 98 Climbing Minneapolis Center
Sat 05:42:30 PM 42.6908 -96.5086 343° North 140 161 6,600  Level Minneapolis Center
Sat 05:43:31 PM 42.7306 -96.5239 344° North 142 163 6,600  Level Minneapolis Center
Sat 05:44:32 PM 42.7694 -96.5375 346° North 144 166 6,600  Level Minneapolis Center
Sat 05:45:34 PM 42.8086 -96.5533 343° North 146 168 6,600  Level Minneapolis Center
Sat 05:46:35 PM 42.8475 -96.5656 347° North 144 166 6,600  Level Minneapolis Center
Sat 05:47:36 PM 42.8856 -96.5811 343° North 143 165 6,600  Level Minneapolis Center
Sat 05:48:38 PM 42.9233 -96.5961 344° North 142 163 6,600  Level Minneapolis Center
Sat 05:49:39 PM 42.9617 -96.6106 345° North 142 163 6,600  Level Minneapolis Center
Sat 05:50:40 PM 42.9997 -96.6283 341° North 143 165 6,600  Level Minneapolis Center
Sat 05:51:42 PM 43.0367 -96.6431 344° North 142 163 6,600  Level Minneapolis Center
Sat 05:52:43 PM 43.0744 -96.6569 345° North 141 162 6,600  Level Minneapolis Center
Sat 05:53:44 PM 43.1189 -96.6744 344° North 139 160 6,600 -49 Level Minneapolis Center
Sat 05:54:46 PM 43.1531 -96.6872 345° North 136 157 6,500 -49 Descending Minneapolis Center
Sat 05:55:47 PM 43.1864 -96.7019 342° North 131 151 6,500 33 Level Minneapolis Center
Sat 05:57:00 PM 43.2298 -96.7099 352° North  Level FlightAware Approximate
Sat 05:57:49 PM 43.2511 -96.7247 352° North 123 142 6,600  Level Minneapolis Center
Sat 05:58:51 PM 43.2850 -96.7364 346° North 123 142 5,800 -774 Descending Minneapolis Center
Sat 06:00:00 PM 43.3249 -96.7517 344° North  Level FlightAware Approximate
Sat 06:07:00 PM 43.4500 -96.8000 342° North  Level FlightAware Approximate
Sat 06:08:00 PM 43.4549 -96.8013 342° North  Level Estimated
Sat 06:09:00 PM 43.4500 -96.8000 342° North  Level FlightAware Approximate
Sat 06:10:00 PM 43.4549 -96.8013 342° North  Level Estimated

Login

Don't have an account? Register now (free) for customized features, flight alerts, and more!